Time;durP1;ratioP1;P1;durP2;ratioP2;P2;SDS_P1;SDS_P2;PMS_P1;PMS_P2;Temp;Humidity;BMP_temperature;BMP_pressure;BME280_temperature;BME280_humidity;BME280_pressure;Samples;Min_cycle;Max_cycle;Signal;HPM_P1;HPM_P2
2024/01/19 00:02:08;;;;;;;;;16.67;14.00;;;;;3.55;59.14;101250.25;5036416;28;45379;-78
2024/01/19 00:04:34;;;;;;;;;15.00;13.67;;;;;3.66;58.24;101272.38;5032552;28;45420;-80
2024/01/19 00:06:59;;;;;;;;;20.00;20.00;;;;;3.33;58.20;101209.41;5053878;28;45471;-80
2024/01/19 00:09:24;;;;;;;;;19.33;17.67;;;;;3.69;58.85;101281.88;5052533;28;44927;-78
2024/01/19 00:11:50;;;;;;;;;17.33;14.67;;;;;3.78;57.99;101298.88;5034864;28;45051;-81
2024/01/19 00:14:15;;;;;;;;;17.33;17.33;;;;;3.79;58.74;101303.22;5050940;28;44909;-80
2024/01/19 00:16:42;;;;;;;;;20.00;18.00;;;;;3.36;58.96;101239.91;5052372;28;45567;-80
2024/01/19 00:19:08;;;;;;;;;21.00;19.33;;;;;3.65;59.15;101283.81;5052102;28;45219;-79
2024/01/19 00:21:40;;;;;;;;;19.67;16.00;;;;;3.14;58.18;101197.38;5054563;28;45439;-78
2024/01/19 00:24:06;;;;;;;;;16.67;13.00;;;;;3.44;58.47;101258.75;5053383;28;45061;-80
2024/01/19 00:26:31;;;;;;;;;19.33;18.33;;;;;3.53;59.02;101275.78;5051570;28;45615;-79
2024/01/19 00:28:56;;;;;;;;;16.00;15.00;;;;;3.72;58.41;101321.13;5053831;28;45120;-79
2024/01/19 00:31:22;;;;;;;;;20.33;18.00;;;;;3.63;58.24;101311.16;5071917;28;44943;-78
2024/01/19 00:33:47;;;;;;;;;19.33;17.00;;;;;3.69;58.30;101325.72;5055205;28;45185;-76
2024/01/19 00:36:12;;;;;;;;;20.00;19.33;;;;;3.66;58.04;101317.06;5052827;28;46396;-79
2024/01/19 00:38:38;;;;;;;;;20.67;19.33;;;;;3.67;58.97;101316.13;5050901;28;45099;-77
2024/01/19 00:41:03;;;;;;;;;19.67;19.67;;;;;3.38;58.41;101274.00;5051865;28;45121;-77
2024/01/19 00:43:28;;;;;;;;;19.33;17.67;;;;;3.42;58.98;101292.16;5052191;28;45205;-80
2024/01/19 00:45:54;;;;;;;;;21.00;17.67;;;;;3.09;58.64;101229.16;5050731;28;45081;-80
2024/01/19 00:48:19;;;;;;;;;16.67;15.33;;;;;3.54;58.64;101306.38;5050590;28;45052;-77
2024/01/19 00:50:45;;;;;;;;;20.00;19.00;;;;;3.61;59.15;101328.78;5051572;28;45401;-79
2024/01/19 00:53:10;;;;;;;;;25.67;24.67;;;;;3.52;58.93;101318.75;5051353;28;45251;-79
2024/01/19 00:55:35;;;;;;;;;24.00;19.00;;;;;3.64;58.85;101350.50;5051663;28;45764;-79
2024/01/19 00:58:01;;;;;;;;;21.33;20.33;;;;;3.44;58.58;101321.81;5050362;28;45283;-77
2024/01/19 01:00:26;;;;;;;;;25.00;21.00;;;;;3.60;59.42;101341.09;5047868;28;45336;-78
2024/01/19 01:02:52;;;;;;;;;22.00;18.00;;;;;3.42;59.52;101317.59;5054243;28;45443;-78
2024/01/19 01:05:20;;;;;;;;;23.00;15.67;;;;;3.59;59.08;101336.72;5054981;28;45189;-77
2024/01/19 01:07:45;;;;;;;;;17.67;15.33;;;;;3.06;59.72;101252.97;5052908;28;45184;-79
2024/01/19 01:10:11;;;;;;;;;23.67;22.33;;;;;3.49;59.28;101334.72;5052731;28;45198;-78
2024/01/19 01:12:36;;;;;;;;;25.67;21.33;;;;;3.15;59.40;101286.59;5054320;28;45125;-78
2024/01/19 01:15:02;;;;;;;;;26.00;19.00;;;;;3.08;59.13;101282.63;5074979;28;45743;-78
2024/01/19 01:17:27;;;;;;;;;23.00;18.67;;;;;2.99;59.66;101272.59;5060580;28;45144;-78
2024/01/19 01:19:53;;;;;;;;;24.33;20.67;;;;;2.94;59.63;101274.63;5054529;28;45530;-79
2024/01/19 01:22:18;;;;;;;;;23.00;18.33;;;;;3.26;59.53;101334.19;5054569;28;44977;-80
2024/01/19 01:24:43;;;;;;;;;22.33;20.67;;;;;3.44;59.21;101368.28;5054388;28;45240;-78
2024/01/19 01:27:09;;;;;;;;;20.00;18.33;;;;;3.35;58.84;101362.59;5051294;28;44944;-78
2024/01/19 01:29:34;;;;;;;;;18.67;17.67;;;;;2.94;59.19;101293.03;5052511;28;45319;-81
2024/01/19 01:32:00;;;;;;;;;19.33;16.33;;;;;3.40;60.21;101378.09;5052993;28;44958;-79
2024/01/19 01:34:25;;;;;;;;;16.33;16.33;;;;;3.25;60.22;101356.13;5050706;28;45235;-81
2024/01/19 01:36:51;;;;;;;;;20.00;18.67;;;;;2.58;59.51;101251.16;5051547;28;44991;-79
2024/01/19 01:39:17;;;;;;;;;18.33;18.00;;;;;3.21;59.42;101356.41;5050157;28;45272;-79
2024/01/19 01:41:44;;;;;;;;;12.33;12.00;;;;;2.85;59.97;101293.53;5050495;28;45290;-81
2024/01/19 01:44:10;;;;;;;;;15.33;13.00;;;;;3.17;60.19;101353.06;5051313;28;45065;-81
2024/01/19 01:46:35;;;;;;;;;19.00;18.00;;;;;3.17;59.46;101353.06;5049290;28;45220;-77
2024/01/19 01:49:01;;;;;;;;;20.33;17.33;;;;;3.27;59.44;101377.94;5051552;28;45235;-79
2024/01/19 01:51:27;;;;;;;;;21.67;16.33;;;;;3.33;59.48;101393.34;5054310;28;45171;-78
2024/01/19 01:53:52;;;;;;;;;18.67;18.67;;;;;3.37;59.83;101396.66;5053233;28;45303;-79
2024/01/19 01:56:18;;;;;;;;;16.67;13.67;;;;;3.40;59.74;101408.78;5053985;28;45287;-78
2024/01/19 01:58:44;;;;;;;;;17.67;15.33;;;;;3.41;60.15;101402.63;5057155;28;44952;-79
2024/01/19 02:01:09;;;;;;;;;16.00;14.00;;;;;2.74;59.60;101299.31;5055283;28;44918;-77
2024/01/19 02:03:36;;;;;;;;;23.67;19.00;;;;;3.38;59.88;101394.88;5053460;28;45478;-77
2024/01/19 02:06:02;;;;;;;;;18.33;16.67;;;;;3.29;60.75;101397.09;5050569;28;45005;-77
2024/01/19 02:08:27;;;;;;;;;13.00;12.00;;;;;2.99;60.18;101356.66;5053607;28;45064;-78
2024/01/19 02:10:53;;;;;;;;;17.67;16.33;;;;;3.31;60.45;101418.03;5053233;28;45119;-80
2024/01/19 02:13:18;;;;;;;;;20.67;19.00;;;;;3.32;60.11;101411.84;5054271;28;45791;-77
2024/01/19 02:15:44;;;;;;;;;20.00;19.00;;;;;3.33;60.20;101419.63;5054462;28;44963;-79
2024/01/19 02:18:09;;;;;;;;;14.67;14.67;;;;;3.36;60.08;101426.50;5055309;28;45800;-78
2024/01/19 02:20:35;;;;;;;;;13.67;12.67;;;;;3.14;60.60;101386.53;5054515;28;45083;-78
2024/01/19 02:23:02;;;;;;;;;18.67;17.00;;;;;3.35;60.18;101419.56;5052678;28;45449;-78
2024/01/19 02:25:28;;;;;;;;;22.00;18.67;;;;;3.21;60.83;101403.69;5052881;28;44931;-79
2024/01/19 02:27:55;;;;;;;;;23.00;19.67;;;;;2.62;60.38;101300.84;5050617;28;45372;-78
2024/01/19 02:30:20;;;;;;;;;21.67;19.33;;;;;2.78;59.91;101331.50;5033878;28;45602;-79
2024/01/19 02:32:46;;;;;;;;;24.67;21.33;;;;;3.17;60.67;101397.72;5016007;28;45946;-78
2024/01/19 02:35:11;;;;;;;;;18.67;15.67;;;;;2.82;60.54;101348.84;5032994;28;45235;-77
2024/01/19 02:37:36;;;;;;;;;20.67;19.00;;;;;3.26;60.78;101418.28;5049932;28;45036;-77
2024/01/19 02:40:04;;;;;;;;;26.67;20.33;;;;;3.24;60.59;101424.53;5070651;28;45227;-76
2024/01/19 02:42:31;;;;;;;;;18.67;15.33;;;;;2.99;60.21;101390.78;5068695;28;46388;-78
2024/01/19 02:44:59;;;;;;;;;23.33;22.00;;;;;3.17;60.57;101426.63;5048944;28;45083;-77
2024/01/19 02:47:26;;;;;;;;;22.33;22.33;;;;;3.07;60.41;101421.94;5048422;28;45145;-78
2024/01/19 02:49:52;;;;;;;;;19.00;18.00;;;;;3.12;60.75;101435.69;5068782;28;44969;-76
2024/01/19 02:52:18;;;;;;;;;25.00;19.00;;;;;3.13;61.45;101438.22;5067752;28;45385;-77
2024/01/19 02:54:44;;;;;;;;;22.33;19.00;;;;;2.93;60.54;101409.50;5051157;28;45267;-77
2024/01/19 02:57:09;;;;;;;;;17.67;17.67;;;;;3.12;60.99;101435.69;5049430;28;45120;-78
2024/01/19 02:59:34;;;;;;;;;21.33;18.33;;;;;2.96;61.41;101409.34;5047007;28;45030;-78
2024/01/19 03:02:00;;;;;;;;;23.00;18.33;;;;;3.12;60.47;101430.44;5038819;28;45564;-77
2024/01/19 03:04:25;;;;;;;;;17.33;16.67;;;;;1.68;60.73;101195.47;5029404;28;45144;-80
2024/01/19 03:06:51;;;;;;;;;18.33;18.00;;;;;3.11;61.07;101429.56;5020183;28;45136;-77
2024/01/19 03:09:16;;;;;;;;;18.67;18.00;;;;;2.89;61.00;101387.81;5044412;28;45296;-76
2024/01/19 03:11:43;;;;;;;;;19.33;19.33;;;;;2.69;61.10;101346.81;5039428;28;46955;-78
2024/01/19 03:14:09;;;;;;;;;18.33;17.33;;;;;2.96;60.56;101397.06;5044259;28;45281;-78
2024/01/19 03:16:40;;;;;;;;;19.00;16.67;;;;;2.98;60.29;101403.09;5050887;28;45297;-78
2024/01/19 03:19:05;;;;;;;;;18.33;17.00;;;;;3.11;60.28;101434.84;5032897;28;45338;-78
2024/01/19 03:21:31;;;;;;;;;19.00;17.00;;;;;2.85;61.17;101396.78;5052075;28;45423;-79
2024/01/19 03:23:56;;;;;;;;;22.67;17.00;;;;;3.01;61.29;101423.13;5051418;28;44903;-77
2024/01/19 03:26:22;;;;;;;;;19.33;18.00;;;;;3.08;61.06;101435.00;5053917;28;45085;-78
2024/01/19 03:28:47;;;;;;;;;16.67;16.67;;;;;3.07;61.12;101445.59;5051288;28;45403;-79
2024/01/19 03:31:16;;;;;;;;;14.33;14.33;;;;;2.74;61.54;101389.44;5052124;28;45561;-78
2024/01/19 03:33:41;;;;;;;;;21.67;19.33;;;;;2.58;61.83;101359.63;5046055;28;45019;-79
2024/01/19 03:36:07;;;;;;;;;21.00;19.33;;;;;2.99;62.08;101431.03;5036083;28;45505;-79
2024/01/19 03:38:32;;;;;;;;;15.00;12.33;;;;;3.07;61.88;101448.22;5050093;28;45041;-77
2024/01/19 03:40:58;;;;;;;;;23.00;18.33;;;;;3.10;61.28;101453.31;5049754;28;45679;-78
2024/01/19 03:43:24;;;;;;;;;18.00;14.67;;;;;3.11;61.16;101449.75;5050129;28;45799;-77
2024/01/19 03:45:49;;;;;;;;;20.00;17.00;;;;;2.65;61.64;101384.66;5045145;28;45321;-76
2024/01/19 03:48:15;;;;;;;;;22.33;16.67;;;;;3.09;61.58;101457.72;5049567;28;45326;-81
2024/01/19 03:50:40;;;;;;;;;18.00;17.00;;;;;2.96;61.45;101435.63;5051237;28;45912;-79
2024/01/19 03:53:05;;;;;;;;;16.00;16.00;;;;;3.00;61.09;101450.28;5051255;28;45022;-77
2024/01/19 03:55:31;;;;;;;;;13.33;12.00;;;;;2.40;61.56;101353.56;5051018;28;45383;-77
2024/01/19 03:57:56;;;;;;;;;19.67;18.33;;;;;3.09;62.12;101470.84;5052033;28;45147;-78
2024/01/19 04:00:21;;;;;;;;;15.67;12.67;;;;;2.57;61.63;101381.56;5055027;28;45180;-77
2024/01/19 04:02:47;;;;;;;;;19.33;18.67;;;;;3.05;61.41;101464.06;5053515;28;45176;-79
2024/01/19 04:05:12;;;;;;;;;13.00;13.00;;;;;2.19;61.55;101317.03;5056436;28;44969;-80
2024/01/19 04:07:38;;;;;;;;;19.00;16.67;;;;;3.12;61.82;101473.31;5049661;28;45372;-78
2024/01/19 04:10:03;;;;;;;;;17.67;17.67;;;;;3.13;61.58;101466.28;5062842;28;46237;-79
2024/01/19 04:12:29;;;;;;;;;17.67;15.67;;;;;2.69;61.46;101407.22;5039116;28;45053;-78
2024/01/19 04:14:55;;;;;;;;;22.33;17.67;;;;;3.02;62.11;101467.69;5050040;28;45107;-77
2024/01/19 04:17:20;;;;;;;;;22.33;18.67;;;;;2.91;61.42;101466.53;5057393;28;45244;-78
2024/01/19 04:19:46;;;;;;;;;24.00;21.33;;;;;2.95;62.02;101475.94;5061511;28;45309;-78
2024/01/19 04:22:12;;;;;;;;;21.67;21.67;;;;;2.98;62.43;101486.28;5040618;28;45083;-77
2024/01/19 04:24:37;;;;;;;;;22.67;18.67;;;;;2.55;62.28;101419.31;5042340;28;45262;-78
2024/01/19 04:27:02;;;;;;;;;17.33;16.33;;;;;2.82;61.83;101469.63;5042069;28;45089;-79
2024/01/19 04:29:28;;;;;;;;;14.33;14.33;;;;;2.18;61.94;101363.41;5041694;28;45227;-78
2024/01/19 04:31:53;;;;;;;;;17.00;14.00;;;;;2.98;61.39;101497.66;5054293;28;45019;-78
2024/01/19 04:34:19;;;;;;;;;12.00;9.00;;;;;2.84;62.53;101476.50;5052589;28;45100;-77
2024/01/19 04:36:45;;;;;;;;;27.00;21.00;;;;;2.81;62.49;101473.19;5051758;28;44937;-78
2024/01/19 04:39:11;;;;;;;;;21.33;18.00;;;;;2.80;62.61;101479.31;5051537;28;45585;-79
2024/01/19 04:41:37;;;;;;;;;21.67;21.00;;;;;2.94;62.41;101509.22;5051730;28;45924;-79
2024/01/19 04:44:02;;;;;;;;;21.00;17.67;;;;;2.09;62.26;101369.97;5052040;28;45400;-78
2024/01/19 04:46:28;;;;;;;;;17.00;17.00;;;;;2.46;61.98;101417.16;5052755;28;44974;-81
2024/01/19 04:48:54;;;;;;;;;16.67;16.00;;;;;2.98;61.77;101512.56;5057369;28;46562;-78
2024/01/19 04:51:20;;;;;;;;;25.00;18.33;;;;;2.92;62.85;101497.13;5071456;28;46068;-76
2024/01/19 04:53:46;;;;;;;;;18.00;16.00;;;;;2.02;62.31;101363.31;5072711;28;44870;-76
2024/01/19 04:56:11;;;;;;;;;17.67;17.67;;;;;2.42;61.98;101416.47;5038586;28;45227;-77
2024/01/19 04:58:37;;;;;;;;;19.67;15.00;;;;;3.00;62.35;101515.94;5069883;28;44950;-80
2024/01/19 05:01:04;;;;;;;;;17.67;16.33;;;;;2.57;61.84;101444.56;5069958;28;45266;-77
2024/01/19 05:03:32;;;;;;;;;15.67;14.33;;;;;2.95;62.29;101518.81;5072754;28;45036;-78
2024/01/19 05:05:57;;;;;;;;;16.00;15.33;;;;;2.87;61.66;101509.63;5063578;28;44952;-79
2024/01/19 05:08:24;;;;;;;;;20.00;18.67;;;;;2.69;62.05;101491.22;5036064;28;45397;-78
2024/01/19 05:10:49;;;;;;;;;21.33;21.00;;;;;2.93;62.31;101533.81;5055826;28;44982;-78
2024/01/19 05:13:15;;;;;;;;;21.67;18.00;;;;;2.50;62.98;101466.81;5055117;28;45529;-78
2024/01/19 05:15:41;;;;;;;;;23.00;20.67;;;;;2.81;62.08;101516.03;5054378;28;44897;-79
2024/01/19 05:18:07;;;;;;;;;20.00;14.33;;;;;2.75;62.43;101516.31;5054190;28;45850;-75
2024/01/19 05:20:32;;;;;;;;;18.00;16.00;;;;;2.84;62.32;101530.78;5040666;28;45126;-79
2024/01/19 05:22:58;;;;;;;;;18.00;16.33;;;;;2.97;62.62;101561.63;5042442;28;45159;-78
2024/01/19 05:25:23;;;;;;;;;18.67;17.00;;;;;2.76;62.35;101528.53;5045261;28;45169;-76
2024/01/19 05:27:53;;;;;;;;;21.33;17.67;;;;;2.99;62.83;101566.78;5053067;28;45148;-77
2024/01/19 05:30:19;;;;;;;;;21.67;20.00;;;;;2.23;62.72;101449.78;5041131;28;45026;-78
2024/01/19 05:32:45;;;;;;;;;20.67;19.33;;;;;2.66;62.58;101532.53;5038748;28;45127;-80
2024/01/19 05:35:11;;;;;;;;;19.67;19.33;;;;;2.97;62.94;101584.41;5053686;28;45175;-78
2024/01/19 05:37:37;;;;;;;;;17.00;17.00;;;;;2.50;62.69;101506.16;5052708;28;45077;-78
2024/01/19 05:40:03;;;;;;;;;25.00;22.67;;;;;2.83;62.55;101555.34;5035065;28;45033;-77
2024/01/19 05:42:32;;;;;;;;;16.00;14.67;;;;;2.87;62.79;101567.41;5055480;28;45637;-77
2024/01/19 05:44:58;;;;;;;;;17.33;17.00;;;;;2.07;61.83;101437.38;5042997;28;45335;-78
2024/01/19 05:47:23;;;;;;;;;20.33;18.33;;;;;2.92;62.58;101581.16;5046680;28;45738;-77
2024/01/19 05:49:49;;;;;;;;;20.67;20.67;;;;;2.91;62.92;101590.81;5060671;28;44839;-79
2024/01/19 05:52:14;;;;;;;;;22.67;19.33;;;;;2.71;62.74;101568.13;5049855;28;44952;-81
2024/01/19 05:54:39;;;;;;;;;17.33;17.33;;;;;2.89;62.35;101597.06;5038771;28;44942;-77
2024/01/19 05:57:05;;;;;;;;;19.33;17.67;;;;;2.80;63.47;101592.25;5046413;28;47374;-76
2024/01/19 05:59:30;;;;;;;;;22.00;18.00;;;;;2.85;62.62;101600.78;5067168;28;45164;-78
2024/01/19 06:01:56;;;;;;;;;23.33;20.67;;;;;1.91;63.17;101449.50;5045932;28;45258;-78
2024/01/19 06:04:22;;;;;;;;;25.33;22.33;;;;;2.75;63.07;101595.94;5048863;28;45047;-78
2024/01/19 06:06:47;;;;;;;;;19.67;18.67;;;;;2.88;62.75;101613.75;5037773;28;45257;-78
2024/01/19 06:09:13;;;;;;;;;17.33;17.33;;;;;2.84;63.19;101617.47;5040410;28;44981;-79
2024/01/19 06:11:39;;;;;;;;;19.33;18.00;;;;;2.69;63.26;101592.75;5031786;28;45326;-76
2024/01/19 06:14:04;;;;;;;;;22.00;17.67;;;;;2.71;63.17;101588.28;5046466;28;45366;-79
2024/01/19 06:16:29;;;;;;;;;26.00;22.33;;;;;2.44;62.89;101544.06;5044508;28;45319;-78
2024/01/19 06:18:55;;;;;;;;;26.33;25.00;;;;;2.70;63.39;101592.69;5051377;28;45263;-78
2024/01/19 06:21:20;;;;;;;;;27.33;22.33;;;;;2.04;62.81;101492.59;5035133;28;45092;-79
2024/01/19 06:23:46;;;;;;;;;18.00;18.00;;;;;2.71;63.25;101599.66;5051425;28;45369;-79
2024/01/19 06:26:12;;;;;;;;;26.67;22.33;;;;;2.89;63.72;101628.59;5050519;28;45234;-76
2024/01/19 06:28:38;;;;;;;;;23.67;22.33;;;;;2.73;63.55;101605.66;5051695;28;44934;-77
2024/01/19 06:31:04;;;;;;;;;26.00;24.33;;;;;2.88;63.19;101638.25;5043544;28;44919;-79
2024/01/19 06:33:30;;;;;;;;;26.33;23.33;;;;;2.33;63.30;101546.31;5035691;28;45644;-78
2024/01/19 06:35:56;;;;;;;;;28.67;24.00;;;;;2.74;63.13;101617.88;5031379;28;45331;-79
2024/01/19 06:38:23;;;;;;;;;21.67;18.67;;;;;2.68;63.72;101609.44;5041617;28;45207;-78
2024/01/19 06:40:48;;;;;;;;;26.33;25.00;;;;;2.63;63.37;101604.41;5034732;28;45043;-77
2024/01/19 06:43:14;;;;;;;;;30.33;26.67;;;;;2.90;63.46;101657.41;5036777;28;45529;-77
2024/01/19 06:45:39;;;;;;;;;24.00;21.67;;;;;2.90;63.55;101660.03;5024344;28;45919;-77
2024/01/19 06:48:05;;;;;;;;;28.33;27.00;;;;;2.55;63.17;101616.19;5032810;28;45202;-80
2024/01/19 06:50:30;;;;;;;;;25.33;23.67;;;;;2.85;63.28;101669.91;5035014;28;45653;-78
2024/01/19 06:52:55;;;;;;;;;31.33;27.00;;;;;2.39;63.64;101602.91;5035988;28;45371;-77
2024/01/19 06:55:23;;;;;;;;;27.67;25.67;;;;;2.60;63.91;101632.56;5029495;28;45558;-78
2024/01/19 06:57:48;;;;;;;;;34.00;27.67;;;;;2.33;63.95;101587.47;5035545;28;45489;-80
2024/01/19 07:00:17;;;;;;;;;27.00;24.33;;;;;2.80;63.86;101682.38;5023025;28;45434;-80
2024/01/19 07:02:42;;;;;;;;;25.00;23.67;;;;;2.52;63.17;101630.31;5037248;28;45532;-80
2024/01/19 07:05:09;;;;;;;;;28.33;25.67;;;;;2.66;63.75;101651.53;5034615;28;45363;-79
2024/01/19 07:07:34;;;;;;;;;26.33;24.67;;;;;2.68;63.75;101654.94;5029250;28;45348;-76
2024/01/19 07:10:00;;;;;;;;;22.00;18.67;;;;;2.80;63.83;101678.91;5037067;28;45471;-79
2024/01/19 07:12:25;;;;;;;;;23.00;22.00;;;;;2.60;63.58;101643.94;5026152;28;45419;-78
2024/01/19 07:14:51;;;;;;;;;29.00;24.00;;;;;2.75;63.41;101669.47;5036445;28;46170;-79
2024/01/19 07:17:17;;;;;;;;;23.67;22.00;;;;;2.85;64.17;101690.06;5015952;28;45234;-76
2024/01/19 07:19:42;;;;;;;;;22.67;19.33;;;;;2.87;63.98;101690.84;5049870;28;45405;-78
2024/01/19 07:22:08;;;;;;;;;27.33;23.00;;;;;2.88;63.68;101695.16;5042256;28;45173;-80
2024/01/19 07:24:35;;;;;;;;;23.00;22.00;;;;;2.89;63.95;101691.63;5053109;28;45731;-83
2024/01/19 07:27:04;;;;;;;;;27.67;24.33;;;;;1.24;63.96;101425.53;5029410;28;45297;-80
2024/01/19 07:29:33;;;;;;;;;25.67;24.33;;;;;2.51;64.33;101633.00;5034163;28;45482;-81
2024/01/19 07:31:59;;;;;;;;;31.67;27.00;;;;;2.14;63.34;101577.81;5014743;28;45545;-82
2024/01/19 07:34:25;;;;;;;;;25.67;24.33;;;;;2.68;64.37;101667.19;5018341;28;45397;-81
2024/01/19 07:36:51;;;;;;;;;25.33;23.33;;;;;2.93;64.01;101711.56;5025860;28;45431;-81
2024/01/19 07:39:18;;;;;;;;;24.00;19.33;;;;;2.81;64.30;101706.88;5032330;28;45670;-81
2024/01/19 07:41:44;;;;;;;;;21.00;21.00;;;;;2.46;63.63;101635.84;5042048;28;45438;-79
2024/01/19 07:44:09;;;;;;;;;26.00;22.67;;;;;2.93;63.78;101711.56;5043893;28;45526;-80
2024/01/19 07:46:35;;;;;;;;;27.00;22.67;;;;;2.85;64.48;101704.03;5052078;28;45103;-80
2024/01/19 07:49:01;;;;;;;;;25.00;22.67;;;;;2.46;64.19;101646.34;5046271;28;45090;-82
2024/01/19 07:51:27;;;;;;;;;24.67;23.00;;;;;2.35;63.77;101625.81;5040892;28;45496;-81
2024/01/19 07:53:54;;;;;;;;;26.33;22.67;;;;;2.27;63.87;101619.22;5037601;28;46613;-80
2024/01/19 07:56:20;;;;;;;;;24.67;17.67;;;;;2.98;64.13;101735.81;5043147;28;45284;-80
2024/01/19 07:58:45;;;;;;;;;29.67;27.33;;;;;3.07;63.71;101743.28;5041126;28;45062;-82
2024/01/19 08:01:11;;;;;;;;;28.00;25.67;;;;;2.42;64.14;101634.28;5015247;28;44967;-81
2024/01/19 08:03:38;;;;;;;;;23.00;20.67;;;;;3.09;63.99;101751.97;5041057;28;45488;-79
2024/01/19 08:06:04;;;;;;;;;24.67;23.33;;;;;3.10;64.22;101752.81;5049629;28;45714;-82
2024/01/19 08:08:30;;;;;;;;;28.33;20.33;;;;;2.75;64.00;101694.88;5049875;28;45098;-81
2024/01/19 08:10:55;;;;;;;;;30.33;26.00;;;;;2.26;64.40;101613.13;5031125;28;45651;-81
2024/01/19 08:13:20;;;;;;;;;33.00;29.33;;;;;3.16;63.41;101763.88;5045844;28;45945;-80
2024/01/19 08:15:46;;;;;;;;;27.33;25.67;;;;;2.94;63.68;101723.75;5047352;28;45267;-81
2024/01/19 08:18:11;;;;;;;;;28.00;28.00;;;;;3.21;64.27;101767.16;5028132;28;44907;-81
2024/01/19 08:20:36;;;;;;;;;21.67;20.00;;;;;3.25;63.58;101773.97;5041477;28;45558;-80
2024/01/19 08:23:02;;;;;;;;;32.33;28.67;;;;;1.48;63.31;101482.91;5040324;28;46299;-80
2024/01/19 08:25:28;;;;;;;;;35.67;33.00;;;;;2.96;63.00;101724.53;5055457;28;44986;-80
2024/01/19 08:27:53;;;;;;;;;29.33;29.33;;;;;3.32;63.13;101783.25;5057469;28;45324;-82
2024/01/19 08:30:20;;;;;;;;;37.33;29.33;;;;;2.98;63.18;101727.94;5048441;28;45200;-79
2024/01/19 08:32:45;;;;;;;;;25.00;24.00;;;;;3.32;64.03;101777.16;5050939;28;45663;-78
2024/01/19 08:35:11;;;;;;;;;31.33;27.33;;;;;3.45;63.24;101799.31;5055886;28;45114;-80
2024/01/19 08:37:43;;;;;;;;;27.00;24.00;;;;;3.27;63.33;101766.00;5045027;28;45123;-79
2024/01/19 08:40:12;;;;;;;;;30.67;27.00;;;;;3.38;63.47;101783.88;5038212;28;45070;-81
2024/01/19 08:42:38;;;;;;;;;33.33;27.00;;;;;3.61;62.47;101807.34;5040597;28;45303;-81
2024/01/19 08:45:05;;;;;;;;;28.33;27.67;;;;;3.80;63.32;101813.38;5046283;28;45160;-80
2024/01/19 08:47:30;;;;;;;;;33.67;29.00;;;;;3.60;62.67;101731.97;5050374;28;45258;-78
2024/01/19 08:49:55;;;;;;;;;6.00;2.00;;;;;3.49;62.53;101676.47;5041243;28;44856;-82
2024/01/19 08:52:21;;;;;;;;;28.67;26.00;;;;;4.04;61.62;101719.25;5046057;28;45585;-78
2024/01/19 08:54:46;;;;;;;;;30.00;30.00;;;;;4.00;61.16;101677.38;5038202;28;45238;-81
2024/01/19 08:57:12;;;;;;;;;36.67;33.00;;;;;4.81;60.17;101767.00;5050494;28;45010;-76
2024/01/19 08:59:37;;;;;;;;;34.00;31.00;;;;;5.47;59.31;101824.88;5042734;28;45280;-82
2024/01/19 09:02:03;;;;;;;;;31.67;30.00;;;;;4.57;57.87;101636.59;5042192;28;46011;-77
2024/01/19 09:04:28;;;;;;;;;26.67;24.33;;;;;6.15;57.27;101848.31;5055743;28;45110;-81
2024/01/19 09:06:55;;;;;;;;;29.33;29.33;;;;;6.48;56.23;101828.81;5057018;28;45097;-79
2024/01/19 09:09:21;;;;;;;;;28.33;24.33;;;;;7.03;55.36;101838.69;5053170;28;45111;-82
2024/01/19 09:11:46;;;;;;;;;14.33;13.00;;;;;7.49;53.61;101824.28;5055995;28;45159;-79
2024/01/19 09:14:13;;;;;;;;;29.67;24.33;;;;;7.60;51.81;101721.22;5047622;28;44927;-85
2024/01/19 09:16:44;;;;;;;;;26.00;23.33;;;;;9.45;50.07;101828.63;5020397;28;45200;-81
2024/01/19 09:19:10;;;;;;;;;28.67;26.67;;;;;10.87;46.45;101847.25;5044840;28;45218;-79
2024/01/19 09:21:35;;;;;;;;;31.33;30.67;;;;;12.06;44.66;101836.84;5034045;28;45085;-78
2024/01/19 09:24:01;;;;;;;;;30.33;29.67;;;;;13.02;42.24;101842.00;5037090;28;44956;-82
2024/01/19 09:26:27;;;;;;;;;30.00;29.33;;;;;13.00;41.13;101820.75;5035896;28;45018;-81
2024/01/19 09:28:52;;;;;;;;;38.00;31.33;;;;;11.95;42.21;101778.25;5047274;28;45025;-80
2024/01/19 09:31:18;;;;;;;;;34.67;32.33;;;;;11.38;43.08;101809.47;5033721;28;45858;-82
2024/01/19 09:33:44;;;;;;;;;34.00;30.33;;;;;11.11;44.17;101860.44;5054827;28;45235;-81
2024/01/19 09:36:10;;;;;;;;;32.33;30.33;;;;;10.02;45.56;101752.75;5040780;28;45552;-85
2024/01/19 09:38:37;;;;;;;;;41.33;33.67;;;;;10.09;46.40;101827.53;5042551;28;45007;-82
2024/01/19 09:41:36;;;;;;;;;35.00;34.00;;;;;9.91;46.70;101867.78;5034023;28;46785;-82
2024/01/19 09:44:10;;;;;;;;;40.33;33.33;;;;;9.61;47.57;101872.63;5048714;28;45047;-80
2024/01/19 09:46:50;;;;;;;;;41.67;34.67;;;;;9.31;47.33;101873.88;5053937;28;44961;-81
2024/01/19 09:49:34;;;;;;;;;37.00;32.67;;;;;9.02;47.81;101872.44;5035805;28;45263;-79
2024/01/19 09:52:21;;;;;;;;;40.00;34.33;;;;;8.76;48.91;101872.38;5053088;28;46030;-81
2024/01/19 09:54:47;;;;;;;;;40.33;34.67;;;;;8.19;49.46;101826.78;5042791;28;44964;-83
2024/01/19 09:57:13;;;;;;;;;39.00;35.00;;;;;8.35;49.82;101887.56;5034869;28;45107;-81
2024/01/19 09:59:39;;;;;;;;;37.67;33.33;;;;;6.26;49.90;101586.28;5043483;28;45053;-81
2024/01/19 10:02:06;;;;;;;;;37.67;33.00;;;;;7.59;50.60;101841.25;5053587;28;45716;-81
2024/01/19 10:04:31;;;;;;;;;40.00;35.67;;;;;7.68;50.86;101881.34;5037146;28;45236;-81
2024/01/19 10:06:57;;;;;;;;;42.33;36.00;;;;;7.61;51.62;101897.63;5056182;28;45010;-84
2024/01/19 10:09:23;;;;;;;;;34.33;33.00;;;;;7.50;52.17;101904.53;5055763;28;45286;-85
2024/01/19 10:11:53;;;;;;;;;33.67;33.00;;;;;7.14;52.35;101875.91;5056210;28;45139;-84
2024/01/19 10:14:20;;;;;;;;;35.00;29.67;;;;;7.02;52.09;101893.38;5055802;28;45105;-80
2024/01/19 10:16:48;;;;;;;;;39.67;34.67;;;;;7.06;52.98;101920.47;5037457;28;45153;-78
2024/01/19 10:19:14;;;;;;;;;35.67;32.67;;;;;6.09;53.08;101790.59;5036681;28;45148;-82
2024/01/19 10:21:39;;;;;;;;;29.33;29.33;;;;;6.82;53.26;101918.38;5035277;28;45251;-82
2024/01/19 10:24:09;;;;;;;;;37.33;30.33;;;;;6.70;53.69;101924.38;5035288;28;45121;-83
2024/01/19 10:26:36;;;;;;;;;34.33;31.33;;;;;6.02;53.66;101815.66;5046116;28;45282;-82
2024/01/19 10:29:15;;;;;;;;;36.00;30.67;;;;;6.40;53.72;101896.13;5050530;28;45129;-82
2024/01/19 10:31:46;;;;;;;;;34.33;33.33;;;;;6.52;54.08;101922.78;5031973;28;45343;-82
2024/01/19 10:34:26;;;;;;;;;37.00;31.33;;;;;6.48;54.01;101929.19;5047053;28;45106;-84
2024/01/19 10:36:52;;;;;;;;;34.00;31.67;;;;;6.30;54.46;101902.91;5015941;28;45248;-79
2024/01/19 10:39:20;;;;;;;;;28.67;28.00;;;;;5.96;55.05;101851.16;5037907;28;45132;-82
2024/01/19 10:41:48;;;;;;;;;37.33;32.67;;;;;5.45;54.40;101783.69;5052341;28;45033;-81
2024/01/19 10:44:20;;;;;;;;;39.00;34.00;;;;;6.35;54.66;101929.91;5050558;28;45740;-83
2024/01/19 10:46:46;;;;;;;;;28.67;28.00;;;;;6.13;54.97;101900.38;5049972;28;45262;-80
2024/01/19 10:49:15;;;;;;;;;41.33;34.00;;;;;6.29;55.28;101930.25;5037525;28;45231;-85
2024/01/19 10:51:42;;;;;;;;;37.00;32.67;;;;;6.26;55.21;101927.78;5054641;28;45699;-81
2024/01/19 10:54:15;;;;;;;;;36.00;31.33;;;;;5.79;55.19;101865.28;5048269;28;45379;-83
2024/01/19 10:56:44;;;;;;;;;36.33;33.33;;;;;6.24;54.52;101926.19;5048714;28;45271;-82
2024/01/19 10:59:12;;;;;;;;;25.67;24.67;;;;;5.49;55.37;101803.69;5049034;28;44910;-83
2024/01/19 11:01:38;;;;;;;;;28.67;26.00;;;;;6.21;54.77;101926.38;5052349;28;45462;-80
2024/01/19 11:04:12;;;;;;;;;36.00;34.00;;;;;5.93;55.28;101884.81;5053179;28;45189;-80
2024/01/19 11:06:38;;;;;;;;;40.33;35.67;;;;;4.77;55.40;101696.06;5028365;28;45070;-80
2024/01/19 11:09:06;;;;;;;;;40.00;35.33;;;;;6.13;54.70;101921.50;5042578;28;44955;-79
2024/01/19 11:11:55;;;;;;;;;34.67;28.33;;;;;6.06;54.86;101925.44;5060117;28;46255;-80
2024/01/19 11:14:26;;;;;;;;;33.67;31.00;;;;;5.98;56.06;101920.56;5040043;28;45283;-83